Time;durP1;ratioP1;P1;durP2;ratioP2;P2;SDS_P1;SDS_P2;PMS_P1;PMS_P2;Temp;Humidity;BMP_temperature;BMP_pressure;BME280_temperature;BME280_humidity;BME280_pressure;Samples;Min_cycle;Max_cycle;Signal;HPM_P1;HPM_P2
2023/10/12 00:00:41;;;;;;;4.10;3.70;;;;;;;13.44;68.79;100514.22;5091906;28;20202;-68
2023/10/12 00:03:08;;;;;;;7.63;4.63;;;;;;;13.37;69.09;100508.00;5092203;28;20326;-68
2023/10/12 00:05:38;;;;;;;6.60;3.80;;;;;;;13.36;69.48;100509.00;5092077;28;20191;-68
2023/10/12 00:08:10;;;;;;;8.50;4.90;;;;;;;13.42;68.82;100512.75;5090888;28;20199;-68
2023/10/12 00:10:44;;;;;;;4.80;4.30;;;;;;;13.41;69.11;100506.63;5091370;28;20179;-68
2023/10/12 00:13:12;;;;;;;6.70;4.10;;;;;;;13.45;68.91;100507.88;5091814;28;20613;-67
2023/10/12 00:15:45;;;;;;;6.03;4.77;;;;;;;13.32;68.96;100497.06;5091899;28;20191;-67
2023/10/12 00:18:14;;;;;;;4.80;4.30;;;;;;;13.23;69.69;100498.19;5092120;28;20191;-67
2023/10/12 00:20:44;;;;;;;6.77;4.77;;;;;;;13.18;70.70;100497.94;5091485;28;20219;-66
2023/10/12 00:23:14;;;;;;;5.93;4.03;;;;;;;13.08;70.24;100478.75;5091823;28;20685;-66
2023/10/12 00:25:45;;;;;;;12.27;4.37;;;;;;;13.15;69.98;100484.97;5092182;28;20329;-66
2023/10/12 00:28:14;;;;;;;4.80;4.30;;;;;;;13.20;69.96;100487.91;5090776;28;20275;-66
2023/10/12 00:30:41;;;;;;;5.93;4.77;;;;;;;13.17;70.00;100476.78;5088927;28;20235;-67
2023/10/12 00:33:08;;;;;;;5.07;4.57;;;;;;;13.26;69.45;100479.16;5071643;28;20281;-67
2023/10/12 00:35:37;;;;;;;4.73;4.13;;;;;;;13.19;69.47;100464.91;5071300;28;20238;-67
2023/10/12 00:38:16;;;;;;;5.27;4.77;;;;;;;13.24;69.96;100473.16;5071157;28;20227;-69
2023/10/12 00:40:49;;;;;;;6.90;4.70;;;;;;;13.26;69.48;100476.47;5070803;28;20192;-69
2023/10/12 00:43:16;;;;;;;5.00;4.60;;;;;;;13.27;69.58;100475.44;5071017;28;20208;-69
2023/10/12 00:45:43;;;;;;;10.60;4.90;;;;;;;13.21;69.77;100462.88;5071811;28;20356;-68
2023/10/12 00:48:16;;;;;;;4.90;4.40;;;;;;;13.16;69.98;100469.78;5072040;28;20671;-68
2023/10/12 00:50:44;;;;;;;5.30;4.37;;;;;;;13.07;70.00;100466.41;5075362;28;20188;-68
2023/10/12 00:53:22;;;;;;;8.90;4.80;;;;;;;12.86;70.28;100458.31;5075360;28;20249;-68
2023/10/12 00:55:49;;;;;;;6.23;4.20;;;;;;;12.62;70.80;100466.63;5075833;28;20569;-68
2023/10/12 00:58:17;;;;;;;9.93;5.40;;;;;;;12.46;71.45;100466.81;5074980;28;20196;-69
2023/10/12 01:00:44;;;;;;;7.87;4.60;;;;;;;12.31;72.20;100470.50;5075045;28;20192;-69
2023/10/12 01:06:10;;;;;;;12.33;4.77;;;;;;;12.40;72.58;100467.56;5074683;28;20200;-69
2023/10/12 01:08:42;;;;;;;6.40;4.70;;;;;;;12.44;72.58;100466.19;5075555;28;20186;-70
2023/10/12 01:11:10;;;;;;;10.27;5.17;;;;;;;12.51;72.63;100469.78;5075215;28;20193;-70
2023/10/12 01:13:36;;;;;;;6.53;5.10;;;;;;;12.57;72.21;100463.72;5075158;28;20265;-68
2023/10/12 01:16:08;;;;;;;9.27;4.70;;;;;;;12.62;72.23;100466.63;5075070;28;20249;-67
2023/10/12 01:18:35;;;;;;;6.73;4.87;;;;;;;12.67;72.18;100469.59;5075505;28;20216;-67
2023/10/12 01:21:03;;;;;;;7.97;5.20;;;;;;;12.68;71.88;100457.06;5075360;28;20195;-67
2023/10/12 01:23:32;;;;;;;6.00;4.40;;;;;;;12.72;71.86;100461.03;5074796;28;20222;-68
2023/10/12 01:26:09;;;;;;;6.03;5.20;;;;;;;12.74;71.87;100459.81;5074834;28;20192;-69
2023/10/12 01:28:37;;;;;;;5.53;4.27;;;;;;;12.71;71.69;100454.03;5074767;28;20266;-68
2023/10/12 01:31:05;;;;;;;8.10;5.10;;;;;;;12.71;71.87;100457.56;5080614;28;20256;-68
2023/10/12 01:33:32;;;;;;;6.03;5.07;;;;;;;12.59;71.76;100440.38;5095187;28;20195;-71
2023/10/12 01:35:59;;;;;;;12.77;4.47;;;;;;;12.64;72.27;100453.97;5095004;28;20187;-69
2023/10/12 01:38:36;;;;;;;9.27;5.10;;;;;;;12.61;72.40;100453.50;5094787;28;20195;-68
2023/10/12 01:41:09;;;;;;;7.00;5.13;;;;;;;12.64;72.59;100453.97;5093739;28;20191;-71
2023/10/12 01:43:36;;;;;;;5.37;4.97;;;;;;;12.66;72.27;100457.25;5093767;28;20207;-71
2023/10/12 01:46:07;;;;;;;10.17;4.97;;;;;;;12.65;72.26;100450.28;5094888;28;20245;-71
2023/10/12 01:48:34;;;;;;;6.47;5.27;;;;;;;12.70;71.86;100452.41;5094355;28;20183;-70
2023/10/12 01:51:08;;;;;;;9.20;5.47;;;;;;;12.72;72.29;100451.19;5094728;28;20227;-71
2023/10/12 01:53:37;;;;;;;9.83;4.80;;;;;;;12.73;71.95;100452.00;5094612;28;20408;-71
2023/10/12 01:56:10;;;;;;;6.67;5.50;;;;;;;12.75;71.79;100450.00;5094895;28;20200;-69
2023/10/12 01:58:40;;;;;;;10.77;5.33;;;;;;;12.78;71.79;100450.44;5094205;28;20270;-69
2023/10/12 02:01:07;;;;;;;6.53;5.03;;;;;;;12.78;71.53;100455.78;5093120;28;20191;-70
2023/10/12 02:03:38;;;;;;;8.83;5.50;;;;;;;12.75;71.67;100450.84;5093336;28;20223;-70
2023/10/12 02:06:13;;;;;;;8.00;5.30;;;;;;;12.74;71.75;100454.50;5093775;28;20193;-69
2023/10/12 02:08:45;;;;;;;6.60;5.17;;;;;;;12.75;71.69;100456.16;5094000;28;20189;-70
2023/10/12 02:11:26;;;;;;;9.63;5.37;;;;;;;12.70;71.74;100442.53;5094443;28;20193;-70
2023/10/12 02:13:55;;;;;;;9.90;5.60;;;;;;;12.63;71.81;100436.31;5094325;28;20291;-69
2023/10/12 02:16:25;;;;;;;6.60;5.40;;;;;;;12.66;72.25;100446.59;5094228;28;20194;-69
2023/10/12 02:18:53;;;;;;;6.10;5.37;;;;;;;12.67;72.43;100452.75;5093772;28;20568;-69
2023/10/12 02:21:22;;;;;;;10.10;6.37;;;;;;;12.66;72.21;100451.13;5094353;28;20245;-69
2023/10/12 02:23:57;;;;;;;7.00;5.73;;;;;;;12.65;72.19;100449.44;5093522;28;20215;-69
2023/10/12 02:26:34;;;;;;;7.30;6.27;;;;;;;12.60;72.04;100447.34;5093596;28;20702;-69
2023/10/12 02:29:11;;;;;;;8.13;6.20;;;;;;;12.60;72.50;100451.84;5093834;28;20184;-69
2023/10/12 02:31:45;;;;;;;12.80;6.83;;;;;;;12.55;72.80;100449.75;5083181;28;20206;-69
2023/10/12 02:34:16;;;;;;;10.67;6.47;;;;;;;12.50;72.86;100444.13;5073304;28;20188;-69
2023/10/12 02:36:46;;;;;;;10.43;6.23;;;;;;;12.52;73.06;100449.28;5073750;28;20192;-69
2023/10/12 02:39:20;;;;;;;7.50;6.27;;;;;;;12.49;73.03;100441.69;5073475;28;20200;-69
2023/10/12 02:41:56;;;;;;;14.23;6.90;;;;;;;12.40;73.66;100446.25;5073230;28;20270;-69
2023/10/12 02:44:23;;;;;;;16.47;7.60;;;;;;;12.38;73.80;100437.63;5073325;28;20250;-69
2023/10/12 02:47:07;;;;;;;10.33;6.73;;;;;;;12.37;73.70;100441.28;5073234;28;20647;-68
2023/10/12 02:49:39;;;;;;;15.87;7.50;;;;;;;12.35;74.14;100442.50;5073035;28;20271;-68
2023/10/12 02:52:08;;;;;;;18.97;7.70;;;;;;;12.31;73.81;100442.03;5073392;28;20241;-69
2023/10/12 02:54:48;;;;;;;17.57;8.50;;;;;;;12.35;74.12;100447.81;5072857;28;20664;-69
2023/10/12 02:57:21;;;;;;;16.83;7.33;;;;;;;12.32;74.02;100446.34;5073201;28;20188;-69
2023/10/12 02:59:49;;;;;;;12.67;7.47;;;;;;;12.29;74.06;100435.25;5072617;28;20659;-69
2023/10/12 03:02:22;;;;;;;12.47;7.43;;;;;;;12.27;74.04;100430.09;5072761;28;20262;-70
2023/10/12 03:04:49;;;;;;;14.73;7.33;;;;;;;12.28;74.65;100431.75;5072635;28;20683;-71
2023/10/12 03:07:22;;;;;;;11.80;6.63;;;;;;;12.28;74.50;100442.41;5073015;28;20192;-70
2023/10/12 03:09:55;;;;;;;8.47;6.87;;;;;;;12.18;74.75;100435.69;5072582;28;20184;-70
2023/10/12 03:12:25;;;;;;;14.73;7.70;;;;;;;12.13;74.87;100430.91;5072583;28;20188;-70
2023/10/12 03:14:52;;;;;;;9.40;8.33;;;;;;;12.05;75.09;100431.00;5072722;28;20191;-70
2023/10/12 03:17:19;;;;;;;12.20;7.47;;;;;;;11.91;75.60;100434.47;5072766;28;20246;-70
2023/10/12 03:19:55;;;;;;;8.20;6.60;;;;;;;11.80;76.53;100437.56;5072664;28;20227;-71
2023/10/12 03:22:26;;;;;;;10.40;6.60;;;;;;;11.79;76.68;100432.41;5072674;28;20180;-70
2023/10/12 03:24:53;;;;;;;13.10;7.00;;;;;;;11.84;76.45;100430.88;5072576;28;20276;-70
2023/10/12 03:27:23;;;;;;;13.63;7.70;;;;;;;11.76;77.03;100428.28;5072629;28;20198;-70
2023/10/12 03:30:06;;;;;;;9.00;7.17;;;;;;;11.83;76.87;100437.22;5072116;28;20198;-70
2023/10/12 03:32:33;;;;;;;12.77;6.93;;;;;;;11.87;76.83;100433.19;5091073;28;20190;-72
2023/10/12 03:35:00;;;;;;;9.17;6.40;;;;;;;11.90;76.37;100432.81;5092130;28;20672;-71
2023/10/12 03:37:47;;;;;;;11.27;6.63;;;;;;;11.94;76.14;100434.13;5092544;28;20198;-71
2023/10/12 03:43:25;;;;;;;13.37;7.40;;;;;;;11.94;76.42;100434.13;5049641;28;20275;-72
2023/10/12 03:46:15;;;;;;;13.77;6.60;;;;;;;11.94;76.16;100428.78;5049894;28;20607;-72
2023/10/12 03:49:02;;;;;;;16.07;7.60;;;;;;;11.92;76.28;100430.00;5078110;28;20665;-71
2023/10/12 03:51:38;;;;;;;12.83;7.33;;;;;;;11.95;76.12;100435.78;5092330;28;20272;-70
2023/10/12 03:54:11;;;;;;;11.30;7.20;;;;;;;11.94;76.24;100436.78;5092336;28;20269;-70
2023/10/12 03:56:38;;;;;;;12.60;7.47;;;;;;;11.89;76.16;100425.84;5091926;28;20202;-70
2023/10/12 03:59:06;;;;;;;15.23;7.67;;;;;;;11.95;76.32;100432.25;5091656;28;20595;-71
2023/10/12 04:01:40;;;;;;;11.33;7.00;;;;;;;11.96;76.11;100437.41;5091704;28;20344;-70
2023/10/12 04:04:16;;;;;;;14.50;7.53;;;;;;;11.93;76.31;100427.16;5091598;28;20720;-71
2023/10/12 04:09:42;;;;;;;15.43;7.70;;;;;;;11.96;76.04;100425.97;5029503;28;20204;-70
2023/10/12 04:12:19;;;;;;;12.90;7.60;;;;;;;11.85;76.09;100407.75;5078011;28;20229;-70
2023/10/12 04:14:49;;;;;;;16.13;7.73;;;;;;;11.96;75.81;100432.09;5091862;28;20193;-70
2023/10/12 04:20:16;;;;;;;13.43;8.13;;;;;;;11.89;75.77;100431.19;5086339;28;20216;-71
2023/10/12 04:25:32;;;;;;;10.77;7.30;;;;;;;11.83;76.47;100425.72;5090418;28;20218;-70
2023/10/12 04:28:11;;;;;;;15.03;8.03;;;;;;;11.86;76.26;100426.22;5090573;28;20210;-70
2023/10/12 04:31:20;;;;;;;16.90;7.63;;;;;;;11.86;76.11;100431.53;5089340;28;20648;-70
2023/10/12 04:33:43;;;;;;;18.13;8.00;;;;;;;11.86;75.69;100423.56;5071195;28;20203;-70
2023/10/12 04:36:24;;;;;;;23.27;8.20;;;;;;;11.84;75.76;100422.88;5071691;28;20183;-70
2023/10/12 04:39:11;;;;;;;24.10;8.93;;;;;;;11.85;75.60;100423.72;5071167;28;20233;-69
2023/10/12 04:41:46;;;;;;;16.73;9.07;;;;;;;11.69;76.38;100424.72;5070812;28;20207;-69
2023/10/12 04:47:04;;;;;;;26.77;8.73;;;;;;;11.96;76.73;100425.97;5071764;28;20183;-71
2023/10/12 04:52:25;;;;;;;18.63;7.97;;;;;;;12.59;80.07;100427.03;5067216;28;20206;-71
2023/10/12 04:57:38;;;;;;;18.17;6.57;;;;;;;13.48;70.16;100432.75;5064143;28;20203;-71
2023/10/12 05:00:16;;;;;;;14.73;6.07;;;;;;;13.43;70.69;100435.16;5070036;28;20671;-72
2023/10/12 05:02:55;;;;;;;14.90;7.07;;;;;;;13.60;70.87;100435.75;5071371;28;20310;-73
2023/10/12 05:08:10;;;;;;;20.17;6.53;;;;;;;14.25;68.12;100453.09;5062584;28;20750;-72
2023/10/12 05:10:47;;;;;;;10.87;5.90;;;;;;;15.06;68.62;100447.72;5054448;28;20195;-62
2023/10/12 05:13:19;;;;;;;12.13;6.30;;;;;;;15.55;62.49;100450.94;5069011;28;20184;-69
2023/10/12 05:15:54;;;;;;;6.60;5.87;;;;;;;15.60;61.81;100445.78;5072332;28;20184;-72
2023/10/12 05:18:22;;;;;;;9.90;6.10;;;;;;;16.00;60.70;100453.84;5078668;28;20282;-68
2023/10/12 05:20:50;;;;;;;11.60;5.83;;;;;;;16.59;62.66;100455.41;5079573;28;20667;-68
2023/10/12 05:23:17;;;;;;;11.33;5.20;;;;;;;17.27;57.47;100461.91;5081144;28;20690;-68
2023/10/12 05:26:07;;;;;;;9.27;4.93;;;;;;;17.81;56.29;100463.00;5079011;28;20680;-68
2023/10/12 05:28:36;;;;;;;9.20;4.60;;;;;;;17.76;52.14;100484.34;5078337;28;20549;-67
2023/10/12 05:31:10;;;;;;;5.97;3.90;;;;;;;17.21;53.21;100473.50;5078919;28;20698;-69
2023/10/12 05:34:00;;;;;;;8.57;7.67;;;;;;;17.25;53.43;100472.03;5083757;28;20186;-67
2023/10/12 05:36:31;;;;;;;7.63;3.80;;;;;;;17.19;55.64;100462.97;5087587;28;20186;-72
2023/10/12 05:39:12;;;;;;;10.47;4.27;;;;;;;16.67;54.47;100463.22;5093621;28;20187;-70
2023/10/12 05:41:39;;;;;;;5.40;3.97;;;;;;;16.18;59.81;100454.03;5094469;28;20187;-75
2023/10/12 05:44:13;;;;;;;6.80;4.30;;;;;;;16.33;56.34;100465.34;5091568;28;20635;-73
2023/10/12 05:46:45;;;;;;;17.23;5.17;;;;;;;16.57;55.86;100464.72;5092804;28;20195;-74
2023/10/12 05:49:13;;;;;;;5.50;4.27;;;;;;;16.40;55.93;100466.97;5073287;28;20279;-72
2023/10/12 05:51:44;;;;;;;9.30;3.90;;;;;;;16.48;56.07;100466.78;5073512;28;20200;-72
2023/10/12 05:54:19;;;;;;;10.90;3.93;;;;;;;16.09;57.04;100466.00;5076563;28;20275;-73
2023/10/12 05:56:45;;;;;;;11.50;4.30;;;;;;;16.06;56.61;100471.75;5083149;28;20180;-73
2023/10/12 05:59:13;;;;;;;3.97;3.63;;;;;;;16.09;58.97;100466.81;5082144;28;20195;-74
2023/10/12 06:01:45;;;;;;;3.87;3.53;;;;;;;16.89;57.44;100475.31;5081359;28;20714;-73
2023/10/12 06:04:14;;;;;;;7.30;4.13;;;;;;;17.60;53.84;100484.06;5076018;28;20183;-74
2023/10/12 06:06:43;;;;;;;6.40;3.30;;;;;;;17.97;53.03;100485.84;5082126;28;20211;-75
2023/10/12 06:09:13;;;;;;;13.27;4.40;;;;;;;17.97;52.58;100481.25;5084754;28;20195;-69
2023/10/12 06:11:43;;;;;;;6.00;4.07;;;;;;;18.65;49.98;100490.16;5087202;28;20210;-69
2023/10/12 06:14:10;;;;;;;6.97;4.47;;;;;;;19.24;47.44;100495.69;5093470;28;20207;-68
2023/10/12 06:16:40;;;;;;;8.45;4.53;;;;;;;19.42;46.25;100492.94;5082010;28;20439;-68
2023/10/12 06:19:18;;;;;;;23.43;4.83;;;;;;;19.76;44.47;100503.00;5085393;28;20223;-68
2023/10/12 06:21:50;;;;;;;12.07;4.53;;;;;;;19.51;45.55;100507.72;5085911;28;20191;-69
2023/10/12 06:24:21;;;;;;;13.40;4.60;;;;;;;19.23;46.59;100491.28;5081963;28;20188;-71
2023/10/12 06:26:48;;;;;;;11.43;4.30;;;;;;;19.68;46.54;100495.25;5086214;28;20195;-71
2023/10/12 06:29:25;;;;;;;8.30;4.60;;;;;;;19.82;44.30;100494.00;5083671;28;20195;-70
2023/10/12 06:31:54;;;;;;;22.50;5.20;;;;;;;19.74;44.59;100486.25;5084597;28;20229;-72
2023/10/12 06:34:22;;;;;;;16.27;4.60;;;;;;;19.86;45.30;100490.59;5089522;28;20196;-71
2023/10/12 06:36:57;;;;;;;14.53;4.77;;;;;;;19.92;44.46;100478.91;5086112;28;20195;-69
2023/10/12 06:42:26;;;;;;;10.50;4.83;;;;;;;19.76;46.13;100482.25;5081514;28;20646;-71
2023/10/12 06:44:52;;;;;;;6.07;4.10;;;;;;;20.00;43.89;100489.34;5091757;28;20685;-71
2023/10/12 06:47:41;;;;;;;9.13;4.80;;;;;;;19.64;44.99;100486.00;5082029;28;20184;-72
2023/10/12 06:50:14;;;;;;;7.87;4.20;;;;;;;19.61;45.23;100483.75;5081005;28;20195;-72
2023/10/12 06:52:43;;;;;;;7.63;4.40;;;;;;;19.54;45.29;100486.56;5082283;28;20184;-70
2023/10/12 06:55:20;;;;;;;5.63;3.73;;;;;;;19.65;46.18;100484.94;5079466;28;20704;-71
2023/10/12 06:57:52;;;;;;;5.23;4.50;;;;;;;20.21;44.37;100482.56;5080732;28;20180;-69
2023/10/12 07:00:33;;;;;;;6.80;4.20;;;;;;;20.39;44.87;100485.19;5085669;28;20184;-70
2023/10/12 07:03:00;;;;;;;9.80;5.37;;;;;;;21.04;41.63;100483.09;5084977;28;20219;-68
2023/10/12 07:05:33;;;;;;;16.53;4.43;;;;;;;21.29;41.50;100489.81;5081775;28;20233;-68
2023/10/12 07:08:02;;;;;;;10.73;3.83;;;;;;;21.62;41.59;100481.78;5087361;28;20179;-69
2023/10/12 07:10:29;;;;;;;9.80;4.13;;;;;;;22.23;38.48;100487.16;5091659;28;20667;-67
2023/10/12 07:13:03;;;;;;;15.07;5.47;;;;;;;22.37;38.59;100490.38;5081825;28;20190;-66
2023/10/12 07:15:40;;;;;;;16.70;4.80;;;;;;;22.10;39.99;100479.41;5087996;28;20643;-66
2023/10/12 07:18:13;;;;;;;16.33;4.33;;;;;;;22.55;39.03;100488.22;5082873;28;20224;-67
2023/10/12 07:20:43;;;;;;;10.10;4.57;;;;;;;22.97;37.96;100493.91;5072012;28;20192;-68
2023/10/12 07:23:15;;;;;;;5.83;4.07;;;;;;;22.99;37.67;100489.06;5079369;28;20191;-67
2023/10/12 07:25:45;;;;;;;15.33;4.20;;;;;;;23.35;37.02;100488.41;5086632;28;20309;-66
2023/10/12 07:28:18;;;;;;;11.63;4.73;;;;;;;23.04;37.52;100487.25;5080240;28;20570;-66
2023/10/12 07:31:02;;;;;;;14.07;4.53;;;;;;;22.67;37.61;100486.19;5075344;28;20194;-67
2023/10/12 07:33:29;;;;;;;18.37;5.27;;;;;;;22.73;38.20;100485.22;5083070;28;20185;-66
2023/10/12 07:35:56;;;;;;;9.33;4.43;;;;;;;23.12;37.10;100484.06;5078004;28;20659;-66
2023/10/12 07:38:34;;;;;;;9.27;4.17;;;;;;;22.72;37.54;100488.16;5086493;28;20184;-67
2023/10/12 07:41:03;;;;;;;8.20;3.40;;;;;;;22.50;38.10;100477.31;5082872;28;20184;-67
2023/10/12 07:43:32;;;;;;;8.97;4.07;;;;;;;22.73;38.04;100474.38;5088637;28;20196;-65
2023/10/12 07:46:09;;;;;;;7.53;3.80;;;;;;;22.70;37.45;100474.06;5083041;28;20225;-66
2023/10/12 07:48:42;;;;;;;7.93;3.47;;;;;;;22.71;37.69;100467.56;5076277;28;20193;-65
2023/10/12 07:51:16;;;;;;;11.00;3.83;;;;;;;22.98;37.31;100461.13;5082886;28;20286;-65
2023/10/12 07:53:45;;;;;;;8.67;3.73;;;;;;;22.71;37.74;100462.97;5083966;28;20246;-65
2023/10/12 07:56:15;;;;;;;26.37;4.50;;;;;;;22.95;37.48;100460.84;5089458;28;20199;-65
2023/10/12 07:58:43;;;;;;;11.13;3.73;;;;;;;22.86;37.22;100455.03;5091944;28;20220;-66
2023/10/12 08:01:26;;;;;;;20.27;3.93;;;;;;;22.81;38.13;100457.69;5082248;28;20204;-65
2023/10/12 08:03:53;;;;;;;11.07;3.87;;;;;;;23.06;37.19;100457.16;5084128;28;20184;-66
2023/10/12 08:06:27;;;;;;;8.07;3.53;;;;;;;22.92;37.15;100450.50;5087879;28;20304;-68
2023/10/12 08:09:02;;;;;;;11.87;2.80;;;;;;;23.04;37.54;100449.31;5079829;28;20238;-67
2023/10/12 08:11:31;;;;;;;4.40;2.93;;;;;;;23.61;36.68;100450.44;5080131;28;20676;-67
2023/10/12 08:14:09;;;;;;;8.37;2.77;;;;;;;24.10;35.49;100443.81;5081911;28;20250;-66
2023/10/12 08:16:40;;;;;;;5.30;3.17;;;;;;;24.20;35.01;100441.19;5083157;28;20193;-67
2023/10/12 08:21:58;;;;;;;8.93;3.20;;;;;;;24.92;34.13;100430.44;5091399;28;20692;-65
2023/10/12 08:24:29;;;;;;;10.40;2.93;;;;;;;25.13;33.68;100426.69;5090353;28;20183;-66
2023/10/12 08:26:57;;;;;;;9.87;3.37;;;;;;;25.25;33.96;100421.84;5071278;28;20208;-63
2023/10/12 08:32:29;;;;;;;7.50;4.13;;;;;;;25.68;32.55;100424.06;5077334;28;20288;-65
2023/10/12 08:35:32;;;;;;;10.27;2.97;;;;;;;25.77;33.08;100414.31;5081415;28;20635;-64
2023/10/12 08:38:12;;;;;;;5.23;3.03;;;;;;;26.02;31.92;100411.59;5071392;28;20720;-65
2023/10/12 08:41:06;;;;;;;7.53;2.97;;;;;;;26.15;32.04;100407.47;5071226;28;20282;-66
2023/10/12 08:43:43;;;;;;;7.43;3.23;;;;;;;26.14;31.14;100401.22;5070981;28;20184;-64
2023/10/12 08:46:12;;;;;;;29.77;4.80;;;;;;;26.29;31.28;100397.63;5088837;28;20214;-64
2023/10/12 08:48:52;;;;;;;5.30;2.70;;;;;;;25.94;31.89;100394.97;5091671;28;20231;-65
2023/10/12 08:51:28;;;;;;;6.10;2.83;;;;;;;25.87;31.44;100394.41;5091142;28;20194;-65
2023/10/12 08:54:00;;;;;;;3.47;2.90;;;;;;;25.24;32.24;100390.28;5090425;28;20673;-65
2023/10/12 08:56:32;;;;;;;7.53;2.80;;;;;;;24.89;32.87;100385.59;5091710;28;20203;-66
2023/10/12 08:59:07;;;;;;;6.90;2.37;;;;;;;24.92;33.54;100371.44;5091870;28;20202;-66
2023/10/12 09:01:41;;;;;;;6.73;2.77;;;;;;;25.24;32.85;100379.41;5082266;28;20225;-66
2023/10/12 09:04:12;;;;;;;4.07;2.70;;;;;;;25.56;32.55;100376.47;5081101;28;20192;-67
2023/10/12 09:06:55;;;;;;;3.00;2.53;;;;;;;25.52;32.75;100372.66;5078099;28;20781;-68
2023/10/12 09:12:12;;;;;;;5.67;2.47;;;;;;;25.69;33.06;100370.47;5090119;28;20190;-65
2023/10/12 09:14:43;;;;;;;3.80;2.60;;;;;;;25.93;33.04;100357.91;5092090;28;20223;-66
2023/10/12 09:17:20;;;;;;;11.83;3.10;;;;;;;26.13;31.61;100360.63;5091590;28;20184;-65
2023/10/12 09:19:48;;;;;;;3.73;2.47;;;;;;;26.26;31.25;100355.41;5082797;28;20262;-65
2023/10/12 09:22:27;;;;;;;5.33;2.90;;;;;;;26.32;31.84;100343.41;5093067;28;20195;-65
2023/10/12 09:24:54;;;;;;;11.37;3.27;;;;;;;26.44;32.75;100351.25;5087502;28;20187;-65
2023/10/12 09:27:36;;;;;;;6.17;2.90;;;;;;;26.51;31.90;100336.25;5094626;28;20195;-66
2023/10/12 09:30:15;;;;;;;6.13;3.07;;;;;;;26.66;31.86;100333.44;5094074;28;20179;-65
2023/10/12 09:32:56;;;;;;;12.57;3.70;;;;;;;26.82;30.81;100335.00;5086193;28;20196;-65
2023/10/12 09:35:33;;;;;;;17.40;4.20;;;;;;;26.54;32.34;100323.97;5094027;28;20198;-64
2023/10/12 09:38:05;;;;;;;8.07;2.63;;;;;;;26.48;31.54;100325.06;5094165;28;20183;-65
2023/10/12 09:40:35;;;;;;;3.80;2.50;;;;;;;26.53;32.05;100322.31;5094019;28;20188;-65
2023/10/12 09:43:07;;;;;;;3.50;2.50;;;;;;;26.69;32.26;100313.00;5094965;28;20188;-65
2023/10/12 09:45:41;;;;;;;3.80;2.80;;;;;;;26.91;30.08;100314.22;5092800;28;20538;-65
2023/10/12 09:48:12;;;;;;;4.40;2.70;;;;;;;27.11;30.91;100310.56;5094047;28;20240;-64
2023/10/12 09:50:41;;;;;;;5.27;2.90;;;;;;;27.18;30.42;100311.03;5094909;28;20225;-64
2023/10/12 09:53:22;;;;;;;4.43;2.90;;;;;;;27.37;29.91;100298.34;5091062;28;20192;-65
2023/10/12 09:56:03;;;;;;;4.43;2.50;;;;;;;27.16;30.18;100269.59;5093195;28;20464;-65
2023/10/12 09:58:34;;;;;;;6.60;2.63;;;;;;;26.95;30.59;100287.22;5093276;28;20179;-64
2023/10/12 10:01:01;;;;;;;10.60;3.13;;;;;;;26.96;29.79;100278.75;5090406;28;20187;-65
2023/10/12 10:03:35;;;;;;;3.80;2.17;;;;;;;26.70;30.61;100273.75;5092538;28;20937;-65
2023/10/12 10:06:10;;;;;;;4.10;2.97;;;;;;;26.84;30.38;100263.81;5094187;28;20242;-65
2023/10/12 10:08:46;;;;;;;6.13;2.70;;;;;;;26.86;30.19;100267.91;5092433;28;20662;-64
2023/10/12 10:11:13;;;;;;;6.17;2.90;;;;;;;26.48;30.31;100262.38;5073492;28;20192;-65
2023/10/12 10:13:46;;;;;;;5.63;2.80;;;;;;;25.96;30.98;100259.38;5074116;28;20196;-64
2023/10/12 10:16:17;;;;;;;6.27;3.10;;;;;;;25.62;31.84;100250.16;5086873;28;20635;-64
2023/10/12 10:18:56;;;;;;;8.27;3.23;;;;;;;25.47;32.13;100242.06;5084743;28;20262;-64
2023/10/12 10:21:30;;;;;;;7.90;2.63;;;;;;;25.44;32.40;100242.59;5082518;28;20659;-65
2023/10/12 10:23:57;;;;;;;8.80;2.60;;;;;;;25.23;32.80;100230.09;5082575;28;20632;-65
2023/10/12 10:26:30;;;;;;;11.37;2.90;;;;;;;25.21;32.31;100234.97;5083188;28;20215;-66
2023/10/12 10:29:05;;;;;;;6.00;3.00;;;;;;;25.30;33.44;100230.63;5084033;28;20175;-64
2023/10/12 10:31:41;;;;;;;8.47;3.30;;;;;;;25.42;32.26;100223.00;5083243;28;20210;-64
2023/10/12 10:34:11;;;;;;;4.73;3.10;;;;;;;24.84;33.39;100219.72;5082185;28;20243;-64
2023/10/12 10:36:38;;;;;;;4.73;2.90;;;;;;;24.78;33.66;100215.41;5082250;28;20549;-65
2023/10/12 10:39:28;;;;;;;5.40;2.77;;;;;;;24.90;33.75;100210.50;5073531;28;20188;-64
2023/10/12 10:41:56;;;;;;;4.10;2.67;;;;;;;24.96;33.21;100203.97;5073193;28;20196;-64
2023/10/12 10:44:26;;;;;;;4.90;2.93;;;;;;;25.15;33.01;100206.16;5073254;28;20200;-64
2023/10/12 10:46:57;;;;;;;6.37;2.50;;;;;;;25.46;33.04;100202.31;5073301;28;20215;-64
2023/10/12 10:49:30;;;;;;;3.97;2.80;;;;;;;25.53;31.96;100191.97;5072724;28;20679;-64
2023/10/12 10:52:13;;;;;;;5.73;2.87;;;;;;;25.67;32.73;100187.53;5072966;28;20224;-65
2023/10/12 10:54:56;;;;;;;7.30;2.90;;;;;;;25.76;32.41;100183.19;5072745;28;20191;-65
2023/10/12 10:57:31;;;;;;;3.97;3.10;;;;;;;26.00;32.43;100182.28;5072752;28;20192;-64
2023/10/12 11:00:00;;;;;;;5.80;2.97;;;;;;;26.26;31.58;100185.69;5073427;28;20259;-64
2023/10/12 11:02:28;;;;;;;7.80;2.97;;;;;;;26.46;31.39;100169.22;5073062;28;20319;-64
2023/10/12 11:04:59;;;;;;;7.87;2.90;;;;;;;26.45;30.71;100173.03;5072764;28;20242;-65
2023/10/12 11:07:26;;;;;;;5.20;2.70;;;;;;;26.40;31.04;100167.59;5073327;28;20214;-65
2023/10/12 11:10:05;;;;;;;2.87;2.63;;;;;;;26.43;30.81;100158.88;5072627;28;20562;-64
2023/10/12 11:12:36;;;;;;;7.20;3.33;;;;;;;26.35;31.35;100141.22;5072975;28;20190;-64
2023/10/12 11:15:08;;;;;;;3.67;3.00;;;;;;;26.40;31.34;100138.44;5072560;28;20721;-65
2023/10/12 11:17:40;;;;;;;8.10;3.37;;;;;;;26.45;30.67;100148.50;5076163;28;20654;-63
2023/10/12 11:20:09;;;;;;;5.20;3.00;;;;;;;26.43;31.48;100135.16;5093230;28;20261;-64
2023/10/12 11:22:37;;;;;;;6.03;2.73;;;;;;;26.47;30.77;100135.41;5092535;28;20191;-64
2023/10/12 11:25:07;;;;;;;6.00;3.17;;;;;;;26.06;31.05;100134.03;5092477;28;20659;-64
2023/10/12 11:27:35;;;;;;;6.90;3.40;;;;;;;25.98;31.96;100119.13;5092573;28;20265;-64
2023/10/12 11:30:07;;;;;;;4.80;3.00;;;;;;;26.09;31.60;100115.22;5092639;28;20665;-64
2023/10/12 11:32:53;;;;;;;5.40;2.97;;;;;;;26.18;31.64;100107.28;5073651;28;20196;-64
2023/10/12 11:35:33;;;;;;;8.70;3.00;;;;;;;26.06;32.42;100104.09;5072569;28;20191;-64
2023/10/12 11:38:00;;;;;;;3.77;3.00;;;;;;;26.05;31.93;100106.00;5072254;28;20748;-64
2023/10/12 11:40:31;;;;;;;3.63;2.57;;;;;;;26.04;32.09;100109.81;5072214;28;20196;-64
2023/10/12 11:42:57;;;;;;;7.03;2.30;;;;;;;26.13;31.81;100105.38;5072278;28;20245;-64
2023/10/12 11:45:33;;;;;;;9.83;3.60;;;;;;;26.15;31.68;100100.50;5072068;28;20517;-64
2023/10/12 11:48:15;;;;;;;4.40;2.50;;;;;;;26.19;31.54;100103.44;5072040;28;20234;-64
2023/10/12 11:50:44;;;;;;;5.07;2.50;;;;;;;26.22;31.34;100097.44;5082563;28;20187;-64
2023/10/12 11:53:14;;;;;;;6.87;3.17;;;;;;;26.14;31.16;100100.78;5084216;28;20264;-65
2023/10/12 11:55:41;;;;;;;4.93;2.50;;;;;;;26.10;31.63;100094.25;5071956;28;20192;-65
2023/10/12 11:58:08;;;;;;;3.23;2.97;;;;;;;26.13;31.63;100088.25;5071828;28;20257;-64
2023/10/12 12:00:37;;;;;;;8.40;2.97;;;;;;;26.12;31.91;100087.44;5072046;28;20639;-64
2023/10/12 12:03:08;;;;;;;6.30;3.37;;;;;;;26.16;31.50;100083.03;5072105;28;20327;-65
2023/10/12 12:05:36;;;;;;;5.37;2.83;;;;;;;26.00;31.76;100073.34;5079767;28;20284;-64
2023/10/12 12:08:06;;;;;;;10.43;3.20;;;;;;;25.82;32.03;100065.81;5082644;28;20217;-64
2023/10/12 12:10:44;;;;;;;6.82;2.80;;;;;;;25.84;32.67;100069.06;5077004;28;20441;-64
2023/10/12 12:13:12;;;;;;;3.60;2.92;;;;;;;25.97;32.33;100062.22;5071702;28;20446;-65
2023/10/12 12:15:43;;;;;;;6.87;3.07;;;;;;;25.99;31.81;100060.00;5071787;28;20196;-67
2023/10/12 12:18:14;;;;;;;6.57;2.60;;;;;;;26.02;31.90;100054.84;5081377;28;20207;-67
2023/10/12 12:20:44;;;;;;;8.20;2.90;;;;;;;25.71;32.10;100053.34;5090688;28;20183;-67
2023/10/12 12:23:11;;;;;;;7.93;2.80;;;;;;;25.48;32.52;100047.78;5092353;28;20195;-67